DRK301 VGHS-VQPR
Flight info
| Callsign | DRK301 |
|---|---|
| Flight time | N/A |
| Altitude | 34000 |
| Route | TEGAK DCT SDP DCT BOGOP DCT TAKTI DCT PRO DCT PR |
| Aircraft | A319/M-SDE3FGHIRWY/LB1 |
Departure
| Time | N/A |
|---|---|
| Airport | Hazrat Shahjalal International Airport (VGHS) |
Arrival
| Time | 2026-05-09 11:53 |
|---|---|
| Airport | Paro International Airport (VQPR) |
| Time | Latitude | Longitude | Altitude | Speed | Heading |
|---|---|---|---|---|---|
| 2026-05-09 11:44 | 27.18296 | 89.51013 | 14674 ft | 255 kts | 357° |
| 2026-05-09 11:44 | 27.20057 | 89.50935 | 14527 ft | 251 kts | 357° |
| 2026-05-09 11:44 | 27.21784 | 89.50861 | 14379 ft | 246 kts | 357° |
| 2026-05-09 11:45 | 27.23461 | 89.50789 | 14231 ft | 237 kts | 357° |
| 2026-05-09 11:45 | 27.25096 | 89.50720 | 14069 ft | 228 kts | 358° |
| 2026-05-09 11:45 | 27.26656 | 89.50656 | 13908 ft | 221 kts | 358° |
| 2026-05-09 11:45 | 27.28167 | 89.50594 | 13730 ft | 215 kts | 358° |
| 2026-05-09 11:46 | 27.29621 | 89.50454 | 13561 ft | 210 kts | 346° |
| 2026-05-09 11:46 | 27.30938 | 89.49802 | 13385 ft | 204 kts | 324° |
| 2026-05-09 11:46 | 27.32066 | 89.48877 | 13194 ft | 195 kts | 323° |
| 2026-05-09 11:46 | 27.33136 | 89.48009 | 12940 ft | 190 kts | 323° |
| 2026-05-09 11:47 | 27.34199 | 89.47145 | 12687 ft | 186 kts | 323° |
| 2026-05-09 11:47 | 27.35231 | 89.46307 | 12446 ft | 181 kts | 323° |
| 2026-05-09 11:47 | 27.36240 | 89.45488 | 12215 ft | 175 kts | 323° |
| 2026-05-09 11:47 | 27.37195 | 89.44716 | 12024 ft | 166 kts | 324° |
| 2026-05-09 11:48 | 27.38135 | 89.43963 | 11855 ft | 165 kts | 324° |
| 2026-05-09 11:48 | 27.39068 | 89.43220 | 11722 ft | 164 kts | 324° |
| 2026-05-09 11:48 | 27.39896 | 89.42337 | 11533 ft | 164 kts | 308° |
| 2026-05-09 11:48 | 27.40557 | 89.41290 | 11307 ft | 165 kts | 300° |
| 2026-05-09 11:49 | 27.41046 | 89.40123 | 11103 ft | 166 kts | 292° |
| 2026-05-09 11:49 | 27.41544 | 89.38946 | 10901 ft | 167 kts | 296° |
| 2026-05-09 11:49 | 27.42072 | 89.37795 | 10674 ft | 165 kts | 293° |
| 2026-05-09 11:49 | 27.42491 | 89.36593 | 10543 ft | 164 kts | 290° |
| 2026-05-09 11:50 | 27.42964 | 89.35438 | 10419 ft | 163 kts | 301° |
| 2026-05-09 11:50 | 27.43754 | 89.34546 | 10258 ft | 163 kts | 331° |
| 2026-05-09 11:50 | 27.44830 | 89.34548 | 9914 ft | 162 kts | 30° |
| 2026-05-09 11:50 | 27.45496 | 89.35516 | 9488 ft | 160 kts | 73° |
| 2026-05-09 11:51 | 27.45510 | 89.36760 | 9000 ft | 162 kts | 106° |
| 2026-05-09 11:51 | 27.45136 | 89.37937 | 8653 ft | 158 kts | 115° |
| 2026-05-09 11:51 | 27.44632 | 89.39018 | 8373 ft | 154 kts | 118° |
| 2026-05-09 11:51 | 27.44169 | 89.40094 | 8213 ft | 152 kts | 115° |
| 2026-05-09 11:52 | 27.43601 | 89.41065 | 7956 ft | 148 kts | 144° |
| 2026-05-09 11:52 | 27.42679 | 89.41516 | 7736 ft | 144 kts | 168° |
| 2026-05-09 11:52 | 27.41687 | 89.41674 | 7519 ft | 144 kts | 165° |
| 2026-05-09 11:52 | 27.40799 | 89.42178 | 7367 ft | 137 kts | 153° |
| 2026-05-09 11:53 | 27.40080 | 89.42629 | 7334 ft | 95 kts | 151° |
| 2026-05-09 11:53 | 27.39702 | 89.42867 | 7324 ft | 36 kts | 150° |
| 2026-05-09 11:53 | 27.39529 | 89.42978 | 7318 ft | 10 kts | 150° |
| 2026-05-09 11:53 | 27.39457 | 89.43001 | 7315 ft | 7 kts | 156° |
| 2026-05-09 11:54 | 27.39470 | 89.43012 | 7315 ft | 3 kts | 352° |
| 2026-05-09 11:54 | 27.39505 | 89.42992 | 7317 ft | 9 kts | 332° |
| 2026-05-09 11:54 | 27.39569 | 89.42954 | 7319 ft | 10 kts | 332° |
| 2026-05-09 11:54 | 27.39624 | 89.42918 | 7322 ft | 10 kts | 329° |
| 2026-05-09 11:55 | 27.39701 | 89.42868 | 7324 ft | 15 kts | 330° |
| 2026-05-09 11:56 | 27.40247 | 89.42520 | 7339 ft | 22 kts | 330° |
| 2026-05-09 11:56 | 27.40373 | 89.42441 | 7344 ft | 20 kts | 330° |
| 2026-05-09 11:56 | 27.40485 | 89.42369 | 7349 ft | 17 kts | 330° |
| 2026-05-09 11:57 | 27.40571 | 89.42315 | 7352 ft | 8 kts | 330° |
| 2026-05-09 11:57 | 27.40599 | 89.42270 | 7353 ft | 7 kts | 272° |
| 2026-05-09 11:57 | 27.40582 | 89.42215 | 7354 ft | 8 kts | 263° |
| 2026-05-09 11:57 | 27.40606 | 89.42187 | 7355 ft | 3 kts | 330° |
| 2026-05-09 11:58 | 27.40620 | 89.42172 | 7356 ft | 2 kts | 294° |
| 2026-05-09 11:58 | 27.40610 | 89.42147 | 7355 ft | 4 kts | 240° |
| 2026-05-09 11:58 | 27.40600 | 89.42127 | 7356 ft | 2 kts | 240° |
| 2026-05-09 11:58 | 27.40597 | 89.42122 | 7356 ft | 0 kts | 240° |